Chantal — A8WQ3 — position and weather

sailwx.info

Track history (hours):
 
Tides and Currents Weather Stations Pressure Air Temp Water Temp Dewpoint Dewpoint Depression Visibility Wind Speed Wind Dir Waves Ship Positions

Chantal

Last reported at 2015-Jan-29 07:33 UTC. Time now 2015-Jan-29 08:21 UTC.
Position N 51°53' E 004°18'.

Length 228 m; draft 9 m.

Type: Tanker. MMSI: 636014805.

Date/timePositionNaut miles runAvg speedWind from/ knotsBaromVisibWave heightAir tempDewpointWater temp
2015-Jan-29 07:33N 51°53' E 004°18'0 0.0
2015-Jan-29 06:33N 51°53' E 004°18'0 0.0
2015-Jan-29 05:33N 51°53' E 004°18'0 0.0
2015-Jan-29 04:33N 51°53' E 004°18'0 0.0
2015-Jan-29 03:33N 51°53' E 004°18'0 0.0
2015-Jan-29 02:33N 51°53' E 004°18'0 0.0
2015-Jan-29 01:33N 51°53' E 004°18'0 0.0
2015-Jan-29 00:33N 51°53' E 004°18'0 0.0
2015-Jan-28 23:33N 51°53' E 004°18'0 0.0
2015-Jan-28 22:33N 51°53' E 004°18'0 0.0
2015-Jan-28 21:33N 51°53' E 004°18'0 0.0
2015-Jan-28 20:33N 51°53' E 004°18'0 0.0
2015-Jan-28 19:30N 51°53' E 004°18'0 0.0
2015-Jan-28 18:33N 51°53' E 004°18'0 0.0
2015-Jan-28 17:33N 51°53' E 004°18'0 0.0
2015-Jan-28 16:33N 51°53' E 004°18'0 0.0
2015-Jan-28 15:31N 51°53' E 004°18'0 0.0
2015-Jan-28 14:30N 51°53' E 004°18'0 0.0
2015-Jan-28 13:33N 51°53' E 004°18'0 0.0
2015-Jan-28 12:27N 51°53' E 004°18'0 0.0
2015-Jan-28 11:33N 51°53' E 004°18'0 0.0
2015-Jan-28 10:33N 51°53' E 004°18'0 0.0
2015-Jan-28 09:33N 51°53' E 004°18'0 0.0
2015-Jan-28 08:33N 51°53' E 004°18'0 0.0
2015-Jan-28 07:30N 51°53' E 004°18'0 0.0
2015-Jan-28 06:33N 51°53' E 004°18'0 0.0
2015-Jan-28 05:33N 51°53' E 004°18'0 0.0
2015-Jan-28 04:27N 51°53' E 004°18'0 0.0
2015-Jan-28 03:30N 51°53' E 004°18'0 0.0
2015-Jan-28 02:33N 51°53' E 004°18'0 0.0
2015-Jan-28 01:24N 51°53' E 004°18'0 0.0
2015-Jan-28 00:33N 51°53' E 004°18'0 0.0
2015-Jan-27 23:33N 51°53' E 004°18'0 0.0
2015-Jan-27 22:33N 51°53' E 004°18'0 0.0
2015-Jan-27 21:33N 51°53' E 004°18'0 0.0
2015-Jan-27 20:33N 51°53' E 004°18'0 0.0
2015-Jan-27 19:33N 51°53' E 004°18'0 0.0
2015-Jan-27 18:33N 51°53' E 004°18'0 0.0
2015-Jan-27 17:33N 51°53' E 004°18'0 0.0
2015-Jan-27 16:33N 51°53' E 004°18'0 0.0
2015-Jan-27 15:33N 51°53' E 004°18'0 0.0
2015-Jan-27 14:33N 51°53' E 004°18'0 0.0
2015-Jan-27 13:30N 51°53' E 004°18'0 0.0
2015-Jan-27 12:31N 51°53' E 004°18'0 0.0
2015-Jan-27 11:33N 51°53' E 004°18'0 0.0
2015-Jan-27 10:33N 51°53' E 004°18'0 0.0
2015-Jan-27 09:33N 51°53' E 004°18'0 0.0
2015-Jan-27 08:33N 51°53' E 004°18'0 0.0
2015-Jan-27 07:30N 51°53' E 004°18'0 0.0
2015-Jan-27 06:33N 51°53' E 004°18'0 0.0
2015-Jan-27 05:33N 51°53' E 004°18'0 0.0
2015-Jan-27 04:33N 51°53' E 004°18'0 0.0
2015-Jan-27 03:33N 51°53' E 004°18'0 0.0
2015-Jan-27 02:33N 51°53' E 004°18'0 0.0
2015-Jan-27 01:33N 51°53' E 004°18'0 0.0
2015-Jan-27 00:33N 51°53' E 004°18'1 1.0
2015-Jan-26 23:34N 51°54' E 004°18'8 8.2
2015-Jan-26 22:34N 51°59' E 004°07'1212.2
2015-Jan-26 21:33N 51°60' E 003°47'1413.5
2015-Jan-26 20:33N 51°55' E 003°26'1312.0
2015-Jan-26 19:30N 51°44' E 003°16'1212.2
2015-Jan-26 18:33N 51°34' E 003°24'1211.8
2015-Jan-26 17:34N 51°26' E 003°39'5 4.6
2015-Jan-26 16:31N 51°24' E 003°45'0 0.0
2015-Jan-26 15:31N 51°24' E 003°45'0 0.0
2015-Jan-26 14:31N 51°24' E 003°45'0 0.0
2015-Jan-26 13:31N 51°24' E 003°45'0 0.2
2015-Jan-26 12:28N 51°24' E 003°45'0 0.1
2015-Jan-26 11:31N 51°24' E 003°45'0 0.0
2015-Jan-26 10:31N 51°24' E 003°45'0 0.0
2015-Jan-26 09:31N 51°24' E 003°45'0 0.0
2015-Jan-26 08:31N 51°24' E 003°45'0 0.0
2015-Jan-26 07:31N 51°24' E 003°45'0 0.2
2015-Jan-26 06:31N 51°24' E 003°45'0 0.2
2015-Jan-26 05:33N 51°24' E 003°45'5 5.3
2015-Jan-26 04:33N 51°26' E 003°37'9 9.4
2015-Jan-26 03:33N 51°24' E 003°22'10 9.7
2015-Jan-26 02:33N 51°24' E 003°07'9 9.0
2015-Jan-26 01:33N 51°22' E 002°53'1110.5
2015-Jan-26 00:33N 51°22' E 002°36'1010.3
2015-Jan-25 23:33N 51°19' E 002°20'1110.6
2015-Jan-25 22:33N 51°14' E 002°06'1110.9
2015-Jan-25 21:33N 51°08' E 001°51'1110.8
2015-Jan-25 20:33N 51°01' E 001°38'1312.7
2015-Jan-25 19:33N 50°50' E 001°27'  
Track history (hours):
 
Tides and Currents Weather Stations Pressure Air Temp Water Temp Dewpoint Dewpoint Depression Visibility Wind Speed Wind Dir Waves Ship Positions

Chantal

Last reported at 2015-Jan-29 07:33 UTC. Time now 2015-Jan-29 08:21 UTC.
Position N 51°53' E 004°18'.

Length 228 m; draft 9 m.

Type: Tanker. MMSI: 636014805.

Date/timePositionNaut miles runAvg speedWind from/ knotsBaromVisibWave heightAir tempDewpointWater temp
2015-Jan-29 07:33N 51°53' E 004°18'0 0.0
2015-Jan-29 06:33N 51°53' E 004°18'0 0.0
2015-Jan-29 05:33N 51°53' E 004°18'0 0.0
2015-Jan-29 04:33N 51°53' E 004°18'0 0.0
2015-Jan-29 03:33N 51°53' E 004°18'0 0.0
2015-Jan-29 02:33N 51°53' E 004°18'0 0.0
2015-Jan-29 01:33N 51°53' E 004°18'0 0.0
2015-Jan-29 00:33N 51°53' E 004°18'0 0.0
2015-Jan-28 23:33N 51°53' E 004°18'0 0.0
2015-Jan-28 22:33N 51°53' E 004°18'0 0.0
2015-Jan-28 21:33N 51°53' E 004°18'0 0.0
2015-Jan-28 20:33N 51°53' E 004°18'0 0.0
2015-Jan-28 19:30N 51°53' E 004°18'0 0.0
2015-Jan-28 18:33N 51°53' E 004°18'0 0.0
2015-Jan-28 17:33N 51°53' E 004°18'0 0.0
2015-Jan-28 16:33N 51°53' E 004°18'0 0.0
2015-Jan-28 15:31N 51°53' E 004°18'0 0.0
2015-Jan-28 14:30N 51°53' E 004°18'0 0.0
2015-Jan-28 13:33N 51°53' E 004°18'0 0.0
2015-Jan-28 12:27N 51°53' E 004°18'0 0.0
2015-Jan-28 11:33N 51°53' E 004°18'0 0.0
2015-Jan-28 10:33N 51°53' E 004°18'0 0.0
2015-Jan-28 09:33N 51°53' E 004°18'0 0.0
2015-Jan-28 08:33N 51°53' E 004°18'0 0.0
2015-Jan-28 07:30N 51°53' E 004°18'0 0.0
2015-Jan-28 06:33N 51°53' E 004°18'0 0.0
2015-Jan-28 05:33N 51°53' E 004°18'0 0.0
2015-Jan-28 04:27N 51°53' E 004°18'0 0.0
2015-Jan-28 03:30N 51°53' E 004°18'0 0.0
2015-Jan-28 02:33N 51°53' E 004°18'0 0.0
2015-Jan-28 01:24N 51°53' E 004°18'0 0.0
2015-Jan-28 00:33N 51°53' E 004°18'0 0.0
2015-Jan-27 23:33N 51°53' E 004°18'0 0.0
2015-Jan-27 22:33N 51°53' E 004°18'0 0.0
2015-Jan-27 21:33N 51°53' E 004°18'0 0.0
2015-Jan-27 20:33N 51°53' E 004°18'0 0.0
2015-Jan-27 19:33N 51°53' E 004°18'0 0.0
2015-Jan-27 18:33N 51°53' E 004°18'0 0.0
2015-Jan-27 17:33N 51°53' E 004°18'0 0.0
2015-Jan-27 16:33N 51°53' E 004°18'0 0.0
2015-Jan-27 15:33N 51°53' E 004°18'0 0.0
2015-Jan-27 14:33N 51°53' E 004°18'0 0.0
2015-Jan-27 13:30N 51°53' E 004°18'0 0.0
2015-Jan-27 12:31N 51°53' E 004°18'0 0.0
2015-Jan-27 11:33N 51°53' E 004°18'0 0.0
2015-Jan-27 10:33N 51°53' E 004°18'0 0.0
2015-Jan-27 09:33N 51°53' E 004°18'0 0.0
2015-Jan-27 08:33N 51°53' E 004°18'0 0.0
2015-Jan-27 07:30N 51°53' E 004°18'0 0.0
2015-Jan-27 06:33N 51°53' E 004°18'0 0.0
2015-Jan-27 05:33N 51°53' E 004°18'0 0.0
2015-Jan-27 04:33N 51°53' E 004°18'0 0.0
2015-Jan-27 03:33N 51°53' E 004°18'0 0.0
2015-Jan-27 02:33N 51°53' E 004°18'0 0.0
2015-Jan-27 01:33N 51°53' E 004°18'0 0.0
2015-Jan-27 00:33N 51°53' E 004°18'1 1.0
2015-Jan-26 23:34N 51°54' E 004°18'8 8.2
2015-Jan-26 22:34N 51°59' E 004°07'1212.2
2015-Jan-26 21:33N 51°60' E 003°47'1413.5
2015-Jan-26 20:33N 51°55' E 003°26'1312.0
2015-Jan-26 19:30N 51°44' E 003°16'1212.2
2015-Jan-26 18:33N 51°34' E 003°24'1211.8
2015-Jan-26 17:34N 51°26' E 003°39'5 4.6
2015-Jan-26 16:31N 51°24' E 003°45'0 0.0
2015-Jan-26 15:31N 51°24' E 003°45'0 0.0
2015-Jan-26 14:31N 51°24' E 003°45'0 0.0
2015-Jan-26 13:31N 51°24' E 003°45'0 0.2
2015-Jan-26 12:28N 51°24' E 003°45'0 0.1
2015-Jan-26 11:31N 51°24' E 003°45'0 0.0
2015-Jan-26 10:31N 51°24' E 003°45'0 0.0
2015-Jan-26 09:31N 51°24' E 003°45'0 0.0
2015-Jan-26 08:31N 51°24' E 003°45'0 0.0
2015-Jan-26 07:31N 51°24' E 003°45'0 0.2
2015-Jan-26 06:31N 51°24' E 003°45'0 0.2
2015-Jan-26 05:33N 51°24' E 003°45'5 5.3
2015-Jan-26 04:33N 51°26' E 003°37'9 9.4
2015-Jan-26 03:33N 51°24' E 003°22'10 9.7
2015-Jan-26 02:33N 51°24' E 003°07'9 9.0
2015-Jan-26 01:33N 51°22' E 002°53'1110.5
2015-Jan-26 00:33N 51°22' E 002°36'1010.3
2015-Jan-25 23:33N 51°19' E 002°20'1110.6
2015-Jan-25 22:33N 51°14' E 002°06'1110.9
2015-Jan-25 21:33N 51°08' E 001°51'1110.8
2015-Jan-25 20:33N 51°01' E 001°38'1312.7
2015-Jan-25 19:33N 50°50' E 001°27'  

Dump ship's entire track history